Dailey, West Virginia
Current Conditions -  °F | °C
As of 5:41 AM on Thursday 27 Nov 2014 (Local Time) from KEKN Reporting Station
Haze Haze  
Wind Chill: 32°   Ceiling: 1900
Heat Index: 32°   Visibility: 3mi
Dew Point: 32°   Wind: 0mph
Humidity: 100%   Direction: NA
Pressure: 29.97"   Gusts: NA
Location:  38.8°N, 79.9°W
Report Text: KEKN 271041Z AUTO 00000KT 3SM BR FEW004 OVC019 00/00 A2997 RMK AO2 I1000 T00000000 TSNO
Loading
Personal Weather Stations






























Interactive Weather Map New forecast layout! Learn more

10-Day Weather Forecast

Advertisements
Track Severe Weather on mobile